createdAt,value
2022-12-11T00:01:23.084Z,11.59
2022-12-11T00:04:27.317Z,11.44
2022-12-11T00:07:32.657Z,11.50
2022-12-11T00:10:37.920Z,11.25
2022-12-11T00:13:42.127Z,11.09
2022-12-11T00:16:46.050Z,11.03
2022-12-11T00:19:49.929Z,11.40
2022-12-11T00:22:55.018Z,11.24
2022-12-11T00:25:58.920Z,11.49
2022-12-11T00:29:02.590Z,11.51
2022-12-11T00:32:06.701Z,11.62
2022-12-11T00:35:11.511Z,11.50
2022-12-11T00:38:18.638Z,11.65
2022-12-11T00:41:22.775Z,11.68
2022-12-11T00:44:26.632Z,11.80
2022-12-11T00:47:30.356Z,11.41
2022-12-11T00:50:34.192Z,11.46
2022-12-11T00:53:39.665Z,11.63
2022-12-11T00:56:44.243Z,11.56
2022-12-11T00:59:47.904Z,11.70
2022-12-11T01:02:52.205Z,11.69
2022-12-11T01:05:56.563Z,11.54
2022-12-11T01:09:19.312Z,11.68
2022-12-11T01:12:23.240Z,11.65
2022-12-11T01:15:29.542Z,11.48
2022-12-11T01:18:33.315Z,11.77
2022-12-11T01:21:37.064Z,11.81
2022-12-11T01:24:42.416Z,11.47
2022-12-11T01:27:46.098Z,11.69
2022-12-11T01:30:49.738Z,11.75
2022-12-11T01:33:55.892Z,11.76
2022-12-11T01:36:59.582Z,11.96
2022-12-11T01:40:06.410Z,11.49
2022-12-11T01:43:12.936Z,11.98
2022-12-11T01:46:16.632Z,12.04
2022-12-11T01:49:22.994Z,11.41
2022-12-11T01:52:27.205Z,11.47
2022-12-11T01:55:33.234Z,11.60
2022-12-11T01:58:43.250Z,11.65
2022-12-11T02:01:51.923Z,11.81
2022-12-11T02:04:55.516Z,11.86
2022-12-11T02:08:03.144Z,11.80
2022-12-11T02:11:14.528Z,11.95
2022-12-11T02:14:26.578Z,11.80
2022-12-11T02:17:37.870Z,11.67
2022-12-11T02:20:46.329Z,11.88
2022-12-11T02:24:08.476Z,11.90
2022-12-11T02:27:28.893Z,12.13
2022-12-11T02:30:38.501Z,12.15
2022-12-11T02:33:48.073Z,12.16
2022-12-11T02:36:55.669Z,12.10
2022-12-11T02:39:59.362Z,12.22
2022-12-11T02:43:07.261Z,12.25
2022-12-11T02:46:13.904Z,12.27
2022-12-11T02:49:19.052Z,12.10
2022-12-11T02:52:25.143Z,12.25
2022-12-11T02:55:31.276Z,12.28
2022-12-11T02:58:39.016Z,12.01
2022-12-11T03:01:44.688Z,12.30
2022-12-11T03:04:49.047Z,12.30
2022-12-11T03:07:52.868Z,12.36
2022-12-11T03:10:56.663Z,12.36
2022-12-11T03:14:03.097Z,12.28
2022-12-11T03:17:15.430Z,12.49
2022-12-11T03:20:31.023Z,12.53
2022-12-11T03:23:41.528Z,12.62
2022-12-11T03:26:56.307Z,12.61
2022-12-11T03:30:06.208Z,12.71
2022-12-11T03:33:14.955Z,12.89
2022-12-11T03:36:23.637Z,13.03
2022-12-11T03:39:32.320Z,13.10
2022-12-11T03:42:38.716Z,13.06
2022-12-11T03:45:44.039Z,13.18
2022-12-11T03:48:50.065Z,13.21
2022-12-11T03:51:57.787Z,12.93
2022-12-11T03:55:06.491Z,12.94
2022-12-11T03:58:10.457Z,12.84
2022-12-11T04:01:14.336Z,12.87
2022-12-11T04:04:19.520Z,12.83
2022-12-11T04:07:23.466Z,12.83
2022-12-11T04:10:27.164Z,12.82
2022-12-11T04:13:30.743Z,12.89
2022-12-11T04:16:33.167Z,12.93
2022-12-11T04:19:55.802Z,12.80
2022-12-11T04:23:17.197Z,12.81
2022-12-11T04:26:22.004Z,12.84
2022-12-11T04:29:25.533Z,12.96
2022-12-11T04:32:29.167Z,12.90
2022-12-11T04:35:34.345Z,12.99
2022-12-11T04:38:38.708Z,12.94
2022-12-11T04:41:42.525Z,13.08
2022-12-11T04:44:46.153Z,13.18
2022-12-11T04:47:49.710Z,13.24
2022-12-11T04:50:54.773Z,13.43
2022-12-11T04:54:00.119Z,13.47
2022-12-11T04:57:03.635Z,13.62
2022-12-11T05:00:09.876Z,13.59
2022-12-11T05:03:13.529Z,13.55
2022-12-11T05:06:18.676Z,13.62
2022-12-11T05:09:22.258Z,13.63
2022-12-11T05:12:25.831Z,13.49
2022-12-11T05:15:29.441Z,13.55
2022-12-11T05:18:33.173Z,13.43
2022-12-11T05:21:38.186Z,13.41
2022-12-11T05:24:41.827Z,13.36
2022-12-11T05:27:45.754Z,13.23
2022-12-11T05:30:49.286Z,13.26
2022-12-11T05:33:53.650Z,13.21
2022-12-11T05:36:58.709Z,13.12
2022-12-11T05:40:02.554Z,13.08
2022-12-11T05:43:06.048Z,13.01
2022-12-11T05:46:11.836Z,13.03
2022-12-11T05:49:19.652Z,13.09
2022-12-11T05:52:24.973Z,13.06
2022-12-11T05:55:28.461Z,13.05
2022-12-11T05:58:32.757Z,12.82
2022-12-11T06:01:38.273Z,12.58
2022-12-11T06:04:41.955Z,12.84
2022-12-11T06:07:47.161Z,12.82
2022-12-11T06:10:52.117Z,12.88
2022-12-11T06:13:56.726Z,13.03
2022-12-11T06:17:00.429Z,12.71
2022-12-11T06:20:04.315Z,12.94
2022-12-11T06:23:09.755Z,12.82
2022-12-11T06:26:14.064Z,12.62
2022-12-11T06:29:18.349Z,12.81
2022-12-11T06:32:22.149Z,12.80
2022-12-11T06:35:25.822Z,12.71
2022-12-11T06:38:31.177Z,13.02
2022-12-11T06:41:35.095Z,13.10
2022-12-11T06:44:38.938Z,13.20
2022-12-11T06:47:42.816Z,13.37
2022-12-11T06:50:46.598Z,13.38
2022-12-11T06:53:54.903Z,13.58
2022-12-11T06:56:58.608Z,13.54
2022-12-11T07:00:02.565Z,13.33
2022-12-11T07:03:06.795Z,13.49
2022-12-11T07:06:10.744Z,13.38
2022-12-11T07:09:16.058Z,13.64
2022-12-11T07:12:19.909Z,13.64
2022-12-11T07:15:23.648Z,13.70
2022-12-11T07:18:27.896Z,13.62
2022-12-11T07:21:31.718Z,13.94
2022-12-11T07:24:37.159Z,13.72
2022-12-11T07:27:41.804Z,13.61
2022-12-11T07:30:45.849Z,13.56
2022-12-11T07:33:49.684Z,13.72
2022-12-11T07:36:53.609Z,13.79
2022-12-11T07:39:59.035Z,13.97
2022-12-11T07:43:02.926Z,13.90
2022-12-11T07:46:09.603Z,13.70
2022-12-11T07:49:13.755Z,13.69
2022-12-11T07:52:17.856Z,13.95
2022-12-11T07:55:25.589Z,14.07
2022-12-11T07:58:29.844Z,14.21
2022-12-11T08:01:36.708Z,14.47
2022-12-11T08:04:40.936Z,14.52
2022-12-11T08:07:44.774Z,14.73
2022-12-11T08:10:50.130Z,14.80
2022-12-11T08:13:54.096Z,14.99
2022-12-11T08:16:58.364Z,14.86
2022-12-11T08:20:02.150Z,14.97
2022-12-11T08:23:06.098Z,14.92
2022-12-11T08:26:13.152Z,15.07
2022-12-11T08:29:16.889Z,15.05
2022-12-11T08:32:20.829Z,15.21
2022-12-11T08:35:27.416Z,15.26
2022-12-11T08:38:31.797Z,15.39
2022-12-11T08:41:37.656Z,15.36
2022-12-11T08:44:41.489Z,15.68
2022-12-11T08:47:45.416Z,15.79
2022-12-11T08:50:49.336Z,15.85
2022-12-11T08:53:56.169Z,15.90
2022-12-11T08:57:01.480Z,16.08
2022-12-11T09:00:06.210Z,16.02
2022-12-11T09:03:12.979Z,16.22
2022-12-11T09:06:19.684Z,16.49
2022-12-11T09:09:23.552Z,16.68
2022-12-11T09:12:29.190Z,16.98
2022-12-11T09:15:33.058Z,16.90
2022-12-11T09:18:37.010Z,16.96
2022-12-11T09:21:40.841Z,16.89
2022-12-11T09:24:44.749Z,16.88
2022-12-11T09:27:50.069Z,16.77
2022-12-11T09:30:54.260Z,16.71
2022-12-11T09:34:02.900Z,16.72
2022-12-11T09:37:06.811Z,16.85
2022-12-11T09:40:12.812Z,16.88
2022-12-11T09:43:29.656Z,16.85
2022-12-11T09:46:34.807Z,16.95
2022-12-11T09:49:43.016Z,16.97
2022-12-11T09:53:08.657Z,17.22
2022-12-11T09:56:19.390Z,17.48
2022-12-11T09:59:32.074Z,17.41
2022-12-11T10:02:48.447Z,17.33
2022-12-11T10:06:04.772Z,17.24
2022-12-11T10:09:21.130Z,17.37
2022-12-11T10:12:38.528Z,17.48
2022-12-11T10:15:50.961Z,17.53
2022-12-11T10:18:55.536Z,17.61
2022-12-11T10:22:01.289Z,17.61
2022-12-11T10:25:11.650Z,17.75
2022-12-11T10:28:17.757Z,17.66
2022-12-11T10:31:33.938Z,17.62
2022-12-11T10:34:41.790Z,17.57
2022-12-11T10:37:45.751Z,17.59
2022-12-11T10:40:52.663Z,17.57
2022-12-11T10:43:56.534Z,17.65
2022-12-11T10:47:07.836Z,17.68
2022-12-11T10:50:25.260Z,17.92
2022-12-11T10:53:30.717Z,17.97
2022-12-11T10:56:37.565Z,17.97
2022-12-11T10:59:47.629Z,17.98
2022-12-11T11:02:52.939Z,17.95
2022-12-11T11:06:05.176Z,17.94
2022-12-11T11:09:30.618Z,18.00
2022-12-11T11:12:41.216Z,17.93
2022-12-11T11:15:45.232Z,17.82
2022-12-11T11:18:56.797Z,17.81
2022-12-11T11:22:07.031Z,17.81
2022-12-11T11:25:20.396Z,17.83
2022-12-11T11:28:27.896Z,17.97
2022-12-11T11:31:36.467Z,17.94
2022-12-11T11:34:41.736Z,17.97
2022-12-11T11:37:48.743Z,17.94
2022-12-11T11:41:04.876Z,17.94
2022-12-11T11:44:17.190Z,18.03
2022-12-11T11:47:26.069Z,18.09
2022-12-11T11:50:36.956Z,17.94
2022-12-11T11:53:42.033Z,17.83
2022-12-11T11:56:46.019Z,17.83
2022-12-11T11:59:56.210Z,17.84
2022-12-11T12:03:05.019Z,17.73
2022-12-11T12:06:19.135Z,17.80
2022-12-11T12:09:35.877Z,17.76
2022-12-11T12:12:51.208Z,17.79
2022-12-11T12:15:58.591Z,17.84
2022-12-11T12:19:10.251Z,17.89
2022-12-11T12:22:33.604Z,18.00
2022-12-11T12:25:43.416Z,18.01
2022-12-11T12:28:54.140Z,18.01
2022-12-11T12:32:09.949Z,18.09
2022-12-11T12:35:24.297Z,18.06
2022-12-11T12:38:41.777Z,18.05
2022-12-11T12:41:56.377Z,18.06
2022-12-11T12:45:05.230Z,17.95
2022-12-11T12:48:10.769Z,18.02
2022-12-11T12:51:16.355Z,17.93
2022-12-11T12:54:23.169Z,17.90
2022-12-11T12:57:26.997Z,17.83
2022-12-11T13:00:37.084Z,17.79
2022-12-11T13:03:52.634Z,17.66
2022-12-11T13:06:57.150Z,17.62
2022-12-11T13:10:06.836Z,17.68
2022-12-11T13:13:33.609Z,17.65
2022-12-11T13:16:39.909Z,17.65
2022-12-11T13:19:43.910Z,17.69
2022-12-11T13:22:55.319Z,17.62
2022-12-11T13:26:02.616Z,17.57
2022-12-11T13:29:06.931Z,17.57
2022-12-11T13:32:25.697Z,17.66
2022-12-11T13:35:29.851Z,17.63
2022-12-11T13:38:34.189Z,17.55
2022-12-11T13:41:40.509Z,17.44
2022-12-11T13:44:48.880Z,17.42
2022-12-11T13:47:52.852Z,17.30
2022-12-11T13:50:59.131Z,17.20
2022-12-11T13:54:17.500Z,17.28
2022-12-11T13:57:26.049Z,17.13
2022-12-11T14:00:33.037Z,17.21
2022-12-11T14:03:37.495Z,17.25
2022-12-11T14:06:41.875Z,17.18
2022-12-11T14:09:47.424Z,17.25
2022-12-11T14:12:58.155Z,17.31
2022-12-11T14:16:02.787Z,17.27
2022-12-11T14:19:10.096Z,17.15
2022-12-11T14:22:20.975Z,17.17
2022-12-11T14:25:27.430Z,17.24
2022-12-11T14:28:40.368Z,17.33
2022-12-11T14:31:45.988Z,17.38
2022-12-11T14:34:51.689Z,17.29
2022-12-11T14:37:57.196Z,17.18
2022-12-11T14:41:05.317Z,17.28
2022-12-11T14:44:16.536Z,17.23
2022-12-11T14:47:24.011Z,17.23
2022-12-11T14:50:31.569Z,17.29
2022-12-11T14:53:39.836Z,17.27
2022-12-11T14:56:47.893Z,17.32
2022-12-11T14:59:55.729Z,17.28
2022-12-11T15:03:01.673Z,17.33
2022-12-11T15:06:24.416Z,17.33
2022-12-11T15:09:31.119Z,17.48
2022-12-11T15:12:35.758Z,17.46
2022-12-11T15:15:47.748Z,17.47
2022-12-11T15:18:53.892Z,17.45
2022-12-11T15:22:04.536Z,17.47
2022-12-11T15:25:19.150Z,17.38
2022-12-11T15:28:30.516Z,17.32
2022-12-11T15:31:36.756Z,17.33
2022-12-11T15:34:45.812Z,17.29
2022-12-11T15:37:54.797Z,17.34
2022-12-11T15:40:59.076Z,17.34
2022-12-11T15:44:05.296Z,17.35
2022-12-11T15:47:15.637Z,17.28
2022-12-11T15:50:21.990Z,17.25
2022-12-11T15:53:25.978Z,17.25
2022-12-11T15:56:30.270Z,17.10
2022-12-11T15:59:34.571Z,17.10
2022-12-11T16:02:39.938Z,17.15
2022-12-11T16:05:44.131Z,17.16
2022-12-11T16:08:47.999Z,17.21
2022-12-11T16:11:52.210Z,17.23
2022-12-11T16:14:56.591Z,17.26
2022-12-11T16:18:07.360Z,17.20
2022-12-11T16:21:12.189Z,17.09
2022-12-11T16:24:18.110Z,17.14
2022-12-11T16:27:23.323Z,17.06
2022-12-11T16:30:28.291Z,16.98
2022-12-11T16:33:33.818Z,16.93
2022-12-11T16:36:38.255Z,16.92
2022-12-11T16:39:42.856Z,16.82
2022-12-11T16:42:47.011Z,16.89
2022-12-11T16:45:55.716Z,16.69
2022-12-11T16:49:01.109Z,16.59
2022-12-11T16:52:04.976Z,16.62
2022-12-11T16:55:10.293Z,16.62
2022-12-11T16:58:18.969Z,16.36
2022-12-11T17:01:23.005Z,16.40
2022-12-11T17:04:29.196Z,16.26
2022-12-11T17:07:33.415Z,16.26
2022-12-11T17:10:41.235Z,16.16
2022-12-11T17:13:45.894Z,16.00
2022-12-11T17:16:49.839Z,15.83
2022-12-11T17:19:55.150Z,15.53
2022-12-11T17:22:58.971Z,15.47
2022-12-11T17:26:02.956Z,15.41
2022-12-11T17:29:07.216Z,15.32
2022-12-11T17:32:11.236Z,15.23
2022-12-11T17:35:16.776Z,15.18
2022-12-11T17:38:20.543Z,15.22
2022-12-11T17:41:24.601Z,15.02
2022-12-11T17:44:30.799Z,14.80
2022-12-11T17:47:34.619Z,14.82
2022-12-11T17:50:43.255Z,14.80
2022-12-11T17:53:47.126Z,14.73
2022-12-11T17:56:50.972Z,14.47
2022-12-11T17:59:56.290Z,14.38
2022-12-11T18:03:00.242Z,14.17
2022-12-11T18:06:09.050Z,14.18
2022-12-11T18:09:12.956Z,14.15
2022-12-11T18:12:17.916Z,14.04
2022-12-11T18:15:21.968Z,13.79
2022-12-11T18:18:25.839Z,13.61
2022-12-11T18:21:33.877Z,13.50
2022-12-11T18:24:37.729Z,13.24
2022-12-11T18:27:41.810Z,13.09
2022-12-11T18:30:45.830Z,13.12
2022-12-11T18:33:50.097Z,12.98
2022-12-11T18:36:55.910Z,13.08
2022-12-11T18:40:00.413Z,13.01
2022-12-11T18:43:04.357Z,13.17
2022-12-11T18:46:09.037Z,13.16
2022-12-11T18:49:13.110Z,13.09
2022-12-11T18:52:18.591Z,12.91
2022-12-11T18:55:22.676Z,12.83
2022-12-11T18:58:26.576Z,12.73
2022-12-11T19:01:33.303Z,12.90
2022-12-11T19:04:37.975Z,12.95
2022-12-11T19:07:43.336Z,12.86
2022-12-11T19:10:48.837Z,12.89
2022-12-11T19:13:53.673Z,12.70
2022-12-11T19:16:57.715Z,12.59
2022-12-11T19:20:18.773Z,12.56
2022-12-11T19:23:27.129Z,12.58
2022-12-11T19:26:31.392Z,12.67
2022-12-11T19:29:35.292Z,12.76
2022-12-11T19:32:39.157Z,12.81
2022-12-11T19:35:43.583Z,12.62
2022-12-11T19:38:49.529Z,12.43
2022-12-11T19:41:53.475Z,12.47
2022-12-11T19:44:57.331Z,12.44
2022-12-11T19:48:01.195Z,12.14
2022-12-11T19:51:06.795Z,12.25
2022-12-11T19:54:16.403Z,12.27
2022-12-11T19:57:20.249Z,12.19
2022-12-11T20:00:24.808Z,12.14
2022-12-11T20:03:29.215Z,12.24
2022-12-11T20:06:34.636Z,12.20
2022-12-11T20:09:40.019Z,12.38
2022-12-11T20:12:43.977Z,12.18
2022-12-11T20:15:47.770Z,11.91
2022-12-11T20:18:52.197Z,11.82
2022-12-11T20:21:57.011Z,11.95
2022-12-11T20:25:02.297Z,11.85
2022-12-11T20:28:06.558Z,11.66
2022-12-11T20:31:19.569Z,11.80
2022-12-11T20:34:23.971Z,11.89
2022-12-11T20:37:29.362Z,11.82
2022-12-11T20:40:34.935Z,11.62
2022-12-11T20:43:39.717Z,11.37
2022-12-11T20:46:43.710Z,11.29
2022-12-11T20:49:47.596Z,11.40
2022-12-11T20:52:51.490Z,11.48
2022-12-11T20:55:56.831Z,11.62
2022-12-11T20:59:01.558Z,11.54
2022-12-11T21:02:05.935Z,11.46
2022-12-11T21:05:10.572Z,11.26
2022-12-11T21:08:14.987Z,11.13
2022-12-11T21:11:20.658Z,10.97
2022-12-11T21:14:26.902Z,11.00
2022-12-11T21:17:30.816Z,11.05
2022-12-11T21:20:35.145Z,10.97
2022-12-11T21:23:39.015Z,10.90
2022-12-11T21:26:44.435Z,10.79
2022-12-11T21:29:48.335Z,10.85
2022-12-11T21:32:52.156Z,10.75
2022-12-11T21:35:57.536Z,10.81
2022-12-11T21:39:02.788Z,10.78
2022-12-11T21:42:08.038Z,10.55
2022-12-11T21:48:36.569Z,10.73
2022-12-11T21:51:46.828Z,10.54
2022-12-11T21:54:51.317Z,10.34
2022-12-11T21:57:57.309Z,10.34
2022-12-11T22:01:01.233Z,10.14
2022-12-11T22:04:06.416Z,10.22
2022-12-11T22:07:10.270Z,10.24
2022-12-11T22:10:14.030Z,10.23
2022-12-11T22:13:19.388Z,10.27
2022-12-11T22:16:23.462Z,10.19
2022-12-11T22:19:32.281Z,10.22
2022-12-11T22:22:36.628Z,10.31
2022-12-11T22:25:40.796Z,10.19
2022-12-11T22:28:46.284Z,10.23
2022-12-11T22:31:50.184Z,10.43
2022-12-11T22:34:54.555Z,10.43
2022-12-11T22:37:58.505Z,10.51
2022-12-11T22:41:04.915Z,10.47
2022-12-11T22:44:15.965Z,10.33
2022-12-11T22:47:20.429Z,10.36
2022-12-11T22:50:24.334Z,10.56
2022-12-11T22:53:28.183Z,10.26
2022-12-11T22:56:32.429Z,10.28
2022-12-11T22:59:38.049Z,10.28
2022-12-11T23:02:43.215Z,9.95
2022-12-11T23:05:47.175Z,10.08
2022-12-11T23:08:51.437Z,9.98
2022-12-11T23:11:55.935Z,9.96
2022-12-11T23:15:04.243Z,10.09
2022-12-11T23:18:08.260Z,10.08
2022-12-11T23:21:13.228Z,10.18
2022-12-11T23:24:17.069Z,10.18
2022-12-11T23:27:20.956Z,10.15
2022-12-11T23:30:26.318Z,9.83
2022-12-11T23:33:30.295Z,10.10
2022-12-11T23:36:34.535Z,9.89
2022-12-11T23:39:38.496Z,9.84
2022-12-11T23:42:42.209Z,10.18
2022-12-11T23:45:48.344Z,10.19
2022-12-11T23:48:52.926Z,10.12
2022-12-11T23:51:57.017Z,10.20
2022-12-11T23:55:00.802Z,10.26
2022-12-11T23:58:04.696Z,10.30
